Time;durP1;ratioP1;P1;durP2;ratioP2;P2;SDS_P1;SDS_P2;PMS_P1;PMS_P2;Temp;Humidity;BMP_temperature;BMP_pressure;BME280_temperature;BME280_humidity;BME280_pressure;Samples;Min_cycle;Max_cycle;Signal;HPM_P1;HPM_P2
2022/05/13 00:00:34;;;;;;;21.60;12.25;;;17.90;99.90;;;;;;4918664;29;20032;-66
2022/05/13 00:02:59;;;;;;;20.52;12.80;;;17.90;99.90;;;;;;4918646;29;20491;-64
2022/05/13 00:05:25;;;;;;;16.27;12.00;;;17.90;99.90;;;;;;4918673;29;20052;-65
2022/05/13 00:07:51;;;;;;;17.38;11.50;;;17.70;99.90;;;;;;4918347;29;20114;-65
2022/05/13 00:10:18;;;;;;;16.88;10.80;;;17.70;99.90;;;;;;4918436;29;20040;-66
2022/05/13 00:12:44;;;;;;;20.80;13.05;;;17.70;99.90;;;;;;4918472;29;20474;-66
2022/05/13 00:15:15;;;;;;;19.65;11.45;;;17.70;99.90;;;;;;4918490;29;20028;-64
2022/05/13 00:17:41;;;;;;;21.42;12.40;;;17.60;99.90;;;;;;4918445;29;20020;-64
2022/05/13 00:20:11;;;;;;;21.63;12.88;;;17.60;99.90;;;;;;4918326;29;20123;-64
2022/05/13 00:22:46;;;;;;;17.48;12.60;;;17.50;99.90;;;;;;4918016;29;20465;-65
2022/05/13 00:25:15;;;;;;;20.90;11.68;;;17.50;99.90;;;;;;4918282;29;20028;-64
2022/05/13 00:27:41;;;;;;;21.65;11.93;;;17.50;99.90;;;;;;4918176;29;20028;-64
2022/05/13 00:30:08;;;;;;;19.08;12.18;;;17.50;99.90;;;;;;4918090;29;20036;-64
2022/05/13 00:32:36;;;;;;;17.55;11.30;;;17.40;99.90;;;;;;4917738;29;20077;-65
2022/05/13 00:35:03;;;;;;;16.52;11.07;;;17.30;99.90;;;;;;4918056;29;20052;-64
2022/05/13 00:37:29;;;;;;;20.08;10.77;;;17.30;99.90;;;;;;4918273;29;20048;-64
2022/05/13 00:39:55;;;;;;;11.82;10.43;;;17.30;99.90;;;;;;4917928;29;20457;-64
2022/05/13 00:42:22;;;;;;;15.23;10.30;;;17.30;99.90;;;;;;4917940;29;20028;-64
2022/05/13 00:44:48;;;;;;;17.10;11.52;;;17.40;99.90;;;;;;4917823;29;20024;-64
2022/05/13 00:47:14;;;;;;;19.92;11.63;;;17.30;99.90;;;;;;4917882;29;20095;-65
2022/05/13 00:49:40;;;;;;;16.38;10.25;;;17.30;99.90;;;;;;4917430;29;20376;-65
2022/05/13 00:52:09;;;;;;;15.93;11.35;;;17.30;99.90;;;;;;4917768;29;20040;-65
2022/05/13 00:54:38;;;;;;;14.63;12.65;;;17.30;99.90;;;;;;4917432;29;20477;-66
2022/05/13 00:57:05;;;;;;;15.20;12.63;;;17.30;99.90;;;;;;4917710;29;20084;-65
2022/05/13 00:59:34;;;;;;;23.00;13.60;;;17.30;99.90;;;;;;4917609;29;20032;-66
2022/05/13 01:02:00;;;;;;;19.45;12.90;;;17.30;99.90;;;;;;4917836;29;20032;-65
2022/05/13 01:04:29;;;;;;;16.33;13.15;;;17.40;99.90;;;;;;4917817;29;20090;-65
2022/05/13 01:06:58;;;;;;;22.02;13.65;;;17.30;99.90;;;;;;4917528;29;20030;-66
2022/05/13 01:09:28;;;;;;;17.92;11.52;;;17.30;99.90;;;;;;4917335;29;20028;-66
2022/05/13 01:12:00;;;;;;;21.75;12.65;;;17.30;99.90;;;;;;4917451;29;20064;-66
2022/05/13 01:14:41;;;;;;;16.35;12.18;;;17.30;99.90;;;;;;4917426;29;20020;-66
2022/05/13 01:20:12;;;;;;;25.65;13.65;;;17.20;99.90;;;;;;4917323;29;20131;-66
2022/05/13 01:23:00;;;;;;;20.85;12.80;;;17.20;99.90;;;;;;4915966;29;20092;-65
2022/05/13 01:25:30;;;;;;;24.98;13.32;;;17.20;99.90;;;;;;4917247;29;20127;-66
2022/05/13 01:28:08;;;;;;;22.10;13.70;;;17.20;99.90;;;;;;4917267;29;20028;-66
2022/05/13 01:30:33;;;;;;;29.13;14.13;;;17.20;99.90;;;;;;4917122;29;20037;-66
2022/05/13 01:32:59;;;;;;;28.75;15.20;;;17.10;99.90;;;;;;4917130;29;20044;-66
2022/05/13 01:35:25;;;;;;;25.60;15.23;;;17.00;99.90;;;;;;4915621;29;20079;-66
2022/05/13 01:37:51;;;;;;;22.95;14.90;;;16.90;99.90;;;;;;4915749;29;20055;-66
2022/05/13 01:40:17;;;;;;;25.45;14.77;;;16.90;99.90;;;;;;4917027;29;20043;-66
2022/05/13 01:42:43;;;;;;;23.23;13.70;;;16.90;99.90;;;;;;4917255;29;20032;-66
2022/05/13 01:45:11;;;;;;;24.08;14.38;;;16.90;99.90;;;;;;4916970;29;20047;-65
2022/05/13 01:47:37;;;;;;;23.13;13.63;;;16.80;99.90;;;;;;4915716;29;20510;-65
2022/05/13 01:50:05;;;;;;;23.27;13.68;;;16.80;99.90;;;;;;4916871;29;20036;-65
2022/05/13 01:52:32;;;;;;;18.30;12.70;;;16.70;99.90;;;;;;4917044;29;20442;-66
2022/05/13 01:54:58;;;;;;;20.98;13.82;;;16.70;99.90;;;;;;4916831;29;20386;-65
2022/05/13 01:57:24;;;;;;;26.15;13.18;;;16.60;99.90;;;;;;4915602;29;20060;-64
2022/05/13 01:59:50;;;;;;;19.10;13.35;;;16.50;99.90;;;;;;4915516;29;20067;-64
2022/05/13 02:02:15;;;;;;;23.73;13.35;;;16.40;99.90;;;;;;4918645;29;20111;-64
2022/05/13 02:04:41;;;;;;;21.40;13.25;;;16.40;99.90;;;;;;4920776;29;20032;-64
2022/05/13 02:07:07;;;;;;;22.50;14.38;;;16.40;99.90;;;;;;4921036;29;20083;-64
2022/05/13 02:09:33;;;;;;;33.90;16.65;;;16.30;99.90;;;;;;4920573;29;20354;-65
2022/05/13 02:11:59;;;;;;;27.63;16.92;;;16.20;99.90;;;;;;4920595;29;20095;-64
2022/05/13 02:14:25;;;;;;;34.67;16.60;;;16.20;99.90;;;;;;4919263;29;20032;-65
2022/05/13 02:16:50;;;;;;;25.52;14.48;;;16.20;99.90;;;;;;4920902;29;20114;-64
2022/05/13 02:19:17;;;;;;;23.15;14.52;;;16.20;99.90;;;;;;4920527;29;20372;-64
2022/05/13 02:21:43;;;;;;;21.20;14.23;;;16.30;99.90;;;;;;4920483;29;20062;-64
2022/05/13 02:24:09;;;;;;;18.70;12.82;;;16.30;99.90;;;;;;4920392;29;20032;-64
2022/05/13 02:26:36;;;;;;;24.83;15.60;;;16.20;99.90;;;;;;4920397;29;20024;-64
2022/05/13 02:29:02;;;;;;;26.63;14.35;;;16.20;99.90;;;;;;4920299;29;20034;-64
2022/05/13 02:31:31;;;;;;;29.25;16.00;;;16.10;99.90;;;;;;4920178;29;20036;-64
2022/05/13 02:34:00;;;;;;;27.67;17.17;;;16.10;99.90;;;;;;4919861;29;20122;-64
2022/05/13 02:36:27;;;;;;;26.60;18.85;;;16.10;99.90;;;;;;4920423;29;20036;-64
2022/05/13 02:38:53;;;;;;;21.17;15.35;;;16.00;99.90;;;;;;4918838;29;20036;-63
2022/05/13 02:41:20;;;;;;;26.52;14.68;;;16.00;99.90;;;;;;4920115;29;20043;-63
2022/05/13 02:43:54;;;;;;;20.92;14.20;;;15.80;99.90;;;;;;4920313;29;20496;-63
2022/05/13 02:46:32;;;;;;;19.45;13.60;;;15.80;99.90;;;;;;4920058;29;20039;-63
2022/05/13 02:48:58;;;;;;;21.92;13.90;;;15.80;99.90;;;;;;4920035;29;20107;-64
2022/05/13 02:51:26;;;;;;;23.75;13.35;;;15.80;99.90;;;;;;4919593;29;20042;-63
2022/05/13 02:53:52;;;;;;;22.92;13.15;;;15.80;99.90;;;;;;4919656;29;20119;-64
2022/05/13 02:56:18;;;;;;;20.90;13.70;;;15.80;99.90;;;;;;4920091;29;20043;-63
2022/05/13 02:58:45;;;;;;;23.02;12.45;;;15.80;99.90;;;;;;4919818;29;20111;-63
2022/05/13 03:01:13;;;;;;;25.05;13.88;;;15.90;99.90;;;;;;4919774;29;20160;-64
2022/05/13 03:03:41;;;;;;;27.90;14.02;;;15.90;99.90;;;;;;4919674;29;20058;-64
2022/05/13 03:06:07;;;;;;;25.65;13.85;;;15.80;99.90;;;;;;4918362;29;20036;-64
2022/05/13 03:08:33;;;;;;;17.60;12.95;;;15.80;99.90;;;;;;4919931;29;20054;-63
2022/05/13 03:11:00;;;;;;;18.63;12.77;;;15.80;99.90;;;;;;4919481;29;20120;-65
2022/05/13 03:13:26;;;;;;;19.92;12.40;;;15.80;99.90;;;;;;4919440;29;20537;-65
2022/05/13 03:15:52;;;;;;;27.67;12.90;;;15.80;99.90;;;;;;4919488;29;20055;-65
2022/05/13 03:18:18;;;;;;;28.60;12.68;;;15.80;99.90;;;;;;4919453;29;20466;-64
2022/05/13 03:20:44;;;;;;;25.63;12.90;;;15.80;99.90;;;;;;4919374;29;20024;-64
2022/05/13 03:23:10;;;;;;;19.00;12.40;;;15.80;99.90;;;;;;4917743;29;20424;-65
2022/05/13 03:25:36;;;;;;;20.85;12.85;;;15.70;99.90;;;;;;4919309;29;20030;-66
2022/05/13 03:28:02;;;;;;;21.23;13.55;;;15.60;99.90;;;;;;4919317;29;20032;-65
2022/05/13 03:30:27;;;;;;;19.77;12.95;;;15.60;99.90;;;;;;4919233;29;20051;-65
2022/05/13 03:32:54;;;;;;;21.63;14.10;;;15.50;99.90;;;;;;4919214;29;20115;-64
2022/05/13 03:35:21;;;;;;;25.98;14.45;;;15.50;99.90;;;;;;4918729;29;20052;-65
2022/05/13 03:37:48;;;;;;;20.10;13.20;;;15.50;99.90;;;;;;4917881;29;20036;-64
2022/05/13 03:40:16;;;;;;;26.67;14.60;;;15.50;99.90;;;;;;4917734;29;20032;-64
2022/05/13 03:42:42;;;;;;;21.27;13.95;;;15.60;99.90;;;;;;4919072;29;20035;-65
2022/05/13 03:45:10;;;;;;;26.35;14.50;;;15.50;99.90;;;;;;4918679;29;20119;-65
2022/05/13 03:47:36;;;;;;;24.35;14.98;;;15.50;99.90;;;;;;4919235;29;20039;-65
2022/05/13 03:50:03;;;;;;;21.27;15.00;;;15.50;99.90;;;;;;4918499;29;20040;-63
2022/05/13 03:52:29;;;;;;;30.85;15.23;;;15.60;99.90;;;;;;4919045;29;20032;-64
2022/05/13 03:54:55;;;;;;;36.13;15.95;;;15.60;99.90;;;;;;4917528;29;20173;-64
2022/05/13 03:57:20;;;;;;;44.50;15.75;;;15.70;99.90;;;;;;4918777;29;20107;-64
2022/05/13 03:59:46;;;;;;;26.15;14.20;;;15.70;99.90;;;;;;4918710;29;20059;-64
2022/05/13 04:02:12;;;;;;;31.48;14.07;;;15.70;99.90;;;;;;4917383;29;20032;-64
2022/05/13 04:10:07;;;;;;;25.92;14.02;;;15.70;99.90;;;;;;4918450;29;20103;-64
2022/05/13 04:18:22;;;;;;;28.95;14.45;;;15.90;99.90;;;;;;4860172;29;20133;-65
2022/05/13 04:20:47;;;;;;;28.25;15.20;;;16.00;99.90;;;;;;4894000;29;20458;-64
2022/05/13 04:23:16;;;;;;;32.15;15.93;;;16.00;99.90;;;;;;4918289;29;20024;-64
2022/05/13 04:25:42;;;;;;;31.85;15.05;;;16.00;99.90;;;;;;4916614;29;20366;-64
2022/05/13 04:28:07;;;;;;;45.10;15.20;;;16.10;99.90;;;;;;4918260;29;20095;-63
2022/05/13 04:30:33;;;;;;;34.00;15.40;;;16.20;99.90;;;;;;4918100;29;20044;-63
2022/05/13 04:32:59;;;;;;;25.52;13.68;;;16.20;99.90;;;;;;4918430;29;20111;-63
2022/05/13 04:35:25;;;;;;;20.83;14.75;;;16.20;99.90;;;;;;4917602;29;20492;-64
2022/05/13 04:37:51;;;;;;;22.02;14.00;;;16.40;99.90;;;;;;4918075;29;20025;-64
2022/05/13 04:40:16;;;;;;;21.02;13.23;;;16.40;99.90;;;;;;4917733;29;20598;-64
2022/05/13 04:42:51;;;;;;;26.00;14.15;;;16.50;99.90;;;;;;4914491;29;20037;-64
2022/05/13 04:45:26;;;;;;;24.67;13.80;;;16.50;99.90;;;;;;4917342;29;20082;-64
2022/05/13 04:48:16;;;;;;;18.52;13.45;;;16.60;99.90;;;;;;4917774;29;20035;-64
2022/05/13 04:50:58;;;;;;;21.83;13.00;;;16.70;99.90;;;;;;4917497;29;20042;-64
2022/05/13 04:53:26;;;;;;;;;;;16.70;99.90;;;;;;4917863;29;20036;-64
2022/05/13 04:55:53;;;;;;;23.67;14.32;;;16.80;99.90;;;;;;4917608;29;19907;-64
2022/05/13 04:58:20;;;;;;;19.65;13.05;;;16.90;99.90;;;;;;4917399;29;20442;-64
2022/05/13 05:00:47;;;;;;;19.88;13.35;;;16.90;99.90;;;;;;4917449;29;20075;-64
2022/05/13 05:03:15;;;;;;;19.20;13.57;;;17.00;99.90;;;;;;4917456;29;20118;-64
2022/05/13 05:05:42;;;;;;;22.75;13.63;;;17.10;99.90;;;;;;4917680;29;20074;-65
2022/05/13 05:08:09;;;;;;;28.38;13.02;;;17.10;99.90;;;;;;4917137;29;20366;-64
2022/05/13 05:10:36;;;;;;;20.42;13.77;;;17.20;99.90;;;;;;4917053;29;20094;-63
2022/05/13 05:13:02;;;;;;;21.58;12.95;;;17.30;99.90;;;;;;4917214;29;20492;-62
2022/05/13 05:15:28;;;;;;;21.63;12.90;;;17.40;99.90;;;;;;4923520;29;20028;-63
2022/05/13 05:17:55;;;;;;;17.85;13.32;;;17.50;99.90;;;;;;4924337;29;20024;-63
2022/05/13 05:20:22;;;;;;;22.30;13.57;;;17.60;99.90;;;;;;4924576;29;20035;-63
2022/05/13 05:22:48;;;;;;;21.10;12.88;;;17.60;99.90;;;;;;4923794;29;20035;-64
2022/05/13 05:25:15;;;;;;;22.42;12.43;;;17.70;99.90;;;;;;4923969;29;20059;-63
2022/05/13 05:27:41;;;;;;;20.73;13.13;;;17.90;99.90;;;;;;4923822;29;20039;-63
2022/05/13 05:30:10;;;;;;;16.83;12.73;;;17.90;99.90;;;;;;4924590;29;20039;-64
2022/05/13 05:32:37;;;;;;;16.67;11.57;;;18.00;99.90;;;;;;4925682;29;20039;-64
2022/05/13 05:35:09;;;;;;;19.55;12.30;;;18.10;99.90;;;;;;4924206;29;20058;-64
2022/05/13 05:37:35;;;;;;;19.52;12.73;;;18.20;99.90;;;;;;4924102;29;20020;-65
2022/05/13 05:40:01;;;;;;;19.35;12.50;;;18.30;99.90;;;;;;4926115;29;20662;-65
2022/05/13 05:42:27;;;;;;;18.75;12.65;;;18.30;99.90;;;;;;4923114;29;20032;-65
2022/05/13 05:44:53;;;;;;;20.80;13.27;;;18.40;99.90;;;;;;4934613;29;20040;-64
2022/05/13 05:47:23;;;;;;;19.77;11.65;;;18.50;99.90;;;;;;4935924;29;20028;-65
2022/05/13 05:49:50;;;;;;;18.33;11.77;;;18.60;99.90;;;;;;4934462;29;20027;-63
2022/05/13 05:52:16;;;;;;;18.65;11.55;;;18.70;99.90;;;;;;4934544;29;20035;-63
2022/05/13 05:57:27;;;;;;;20.25;12.55;;;18.90;99.90;;;;;;4915855;29;20035;-65
2022/05/13 05:59:54;;;;;;;21.73;12.55;;;19.10;99.90;;;;;;4916540;29;20028;-63
2022/05/13 06:02:20;;;;;;;23.67;12.43;;;19.20;99.90;;;;;;4913972;29;20031;-63
2022/05/13 06:04:46;;;;;;;22.30;12.65;;;19.30;99.90;;;;;;4916096;29;20425;-63
2022/05/13 06:07:16;;;;;;;21.10;11.43;;;19.40;99.90;;;;;;4916493;29;20131;-63
2022/05/13 06:09:43;;;;;;;27.38;11.10;;;19.60;99.90;;;;;;4933184;29;20028;-64
2022/05/13 06:12:13;;;;;;;16.00;9.73;;;19.90;99.90;;;;;;4935291;29;20030;-63
2022/05/13 06:14:40;;;;;;;14.50;8.73;;;20.30;99.90;;;;;;4935330;29;20035;-66
2022/05/13 06:17:07;;;;;;;18.90;9.38;;;20.30;99.90;;;;;;4954092;29;20037;-67
2022/05/13 06:19:33;;;;;;;17.95;9.68;;;20.60;99.90;;;;;;4954065;28;20436;-66
2022/05/13 06:21:59;;;;;;;23.63;10.82;;;20.90;99.90;;;;;;4954211;28;20468;-66
2022/05/13 06:24:25;;;;;;;13.95;8.90;;;21.10;99.90;;;;;;4968976;28;20116;-65
2022/05/13 06:26:51;;;;;;;26.90;10.00;;;;;;;;;;4954325;28;20507;-68
2022/05/13 06:29:19;;;;;;;19.90;8.05;;;;;;;;;;4968969;28;20069;-67
2022/05/13 06:31:45;;;;;;;18.55;8.32;;;;;;;;;;4954281;29;20039;-68
2022/05/13 06:34:11;;;;;;;15.68;6.82;;;;;;;;;;4954297;29;20047;-68
2022/05/13 06:36:38;;;;;;;22.38;8.77;;;21.40;99.90;;;;;;4954176;29;20465;-65
2022/05/13 06:39:05;;;;;;;20.30;8.48;;;21.80;99.90;;;;;;4954345;28;20110;-69
2022/05/13 06:41:31;;;;;;;18.30;8.27;;;21.90;99.90;;;;;;4954131;28;20024;-71
2022/05/13 06:43:57;;;;;;;15.77;7.32;;;22.00;99.90;;;;;;4953762;28;20036;-66
2022/05/13 06:46:23;;;;;;;22.92;6.90;;;22.00;99.90;;;;;;4954406;28;20027;-68
2022/05/13 06:48:49;;;;;;;16.98;6.35;;;;;;;;;;4956549;28;20035;-68
2022/05/13 06:51:17;;;;;;;19.52;6.70;;;22.20;99.90;;;;;;4956473;29;20035;-69
2022/05/13 06:53:43;;;;;;;12.98;6.47;;;22.20;99.90;;;;;;4957918;28;20647;-68
2022/05/13 06:56:08;;;;;;;20.40;6.70;;;22.30;99.90;;;;;;4957773;28;20040;-66
2022/05/13 06:58:35;;;;;;;16.50;7.18;;;22.40;99.90;;;;;;4957917;28;20037;-65
2022/05/13 07:01:02;;;;;;;12.23;6.95;;;22.50;99.90;;;;;;4957727;28;20472;-70
2022/05/13 07:03:28;;;;;;;13.48;6.93;;;;;;;;;;4956451;29;20117;-69
2022/05/13 07:05:54;;;;;;;18.45;7.28;;;22.50;99.90;;;;;;4957571;29;20499;-66
2022/05/13 07:08:19;;;;;;;13.60;6.55;;;22.70;99.90;;;;;;4956492;29;20050;-65
2022/05/13 07:10:45;;;;;;;17.25;7.07;;;22.80;99.90;;;;;;4938814;28;20090;-65
2022/05/13 07:13:14;;;;;;;10.70;5.72;;;22.90;99.90;;;;;;4938356;29;20051;-66
2022/05/13 07:15:42;;;;;;;13.07;7.28;;;23.10;99.90;;;;;;4937093;29;20028;-66
2022/05/13 07:18:09;;;;;;;15.65;6.70;;;;;;;;;;4938364;29;20052;-66
2022/05/13 07:20:35;;;;;;;17.30;7.32;;;23.10;99.90;;;;;;4938444;29;20032;-65
2022/05/13 07:23:01;;;;;;;12.88;6.65;;;23.30;99.90;;;;;;4937028;29;20031;-66
2022/05/13 07:25:27;;;;;;;13.35;6.72;;;23.40;99.90;;;;;;4938332;29;20090;-66
2022/05/13 07:27:53;;;;;;;13.85;6.22;;;23.50;99.90;;;;;;4938117;29;20086;-70
2022/05/13 07:30:19;;;;;;;16.90;6.43;;;;;;;;;;4938189;29;20457;-67
2022/05/13 07:32:46;;;;;;;14.95;6.97;;;;;;;;;;4938015;29;20047;-67
2022/05/13 07:35:12;;;;;;;11.48;5.90;;;;;;;;;;4937915;29;20048;-68
2022/05/13 07:37:38;;;;;;;10.18;6.20;;;;;;;;;;4938001;29;20039;-69
2022/05/13 07:42:50;;;;;;;16.13;6.68;;;24.10;99.90;;;;;;4936672;29;20030;-68
2022/05/13 07:45:16;;;;;;;9.13;5.55;;;;;;;;;;4936845;29;20035;-67
2022/05/13 07:47:42;;;;;;;19.65;6.63;;;24.50;99.90;;;;;;4937181;29;20380;-68
2022/05/13 07:50:10;;;;;;;14.77;6.82;;;24.50;99.90;;;;;;4937464;29;20043;-68
2022/05/13 07:52:40;;;;;;;14.73;6.38;;;;;;;;;;4937664;29;20060;-68
2022/05/13 07:55:10;;;;;;;12.32;6.03;;;24.50;99.90;;;;;;4936324;29;20523;-68
2022/05/13 07:57:38;;;;;;;15.45;6.63;;;24.80;99.90;;;;;;4937712;29;20058;-68
2022/05/13 08:02:49;;;;;;;17.80;5.90;;;24.90;99.60;;;;;;4937512;29;20171;-67
2022/05/13 08:05:15;;;;;;;14.68;6.68;;;25.00;98.90;;;;;;4937509;29;20492;-68
2022/05/13 08:07:41;;;;;;;13.60;8.05;;;25.10;99.30;;;;;;4937775;29;20036;-68
2022/05/13 08:10:08;;;;;;;6.95;5.35;;;25.20;97.70;;;;;;4937458;29;20086;-67
2022/05/13 08:12:34;;;;;;;9.77;6.07;;;25.20;97.40;;;;;;4937451;29;20115;-69
2022/05/13 08:14:59;;;;;;;11.23;5.55;;;25.50;97.50;;;;;;4937507;29;20059;-69
2022/05/13 08:17:25;;;;;;;9.07;5.78;;;25.40;97.50;;;;;;4935117;29;20513;-68
2022/05/13 08:19:51;;;;;;;15.43;6.60;;;25.50;97.20;;;;;;4917691;29;20028;-67
2022/05/13 08:22:17;;;;;;;14.77;6.85;;;25.90;99.90;;;;;;4916594;29;20038;-67
2022/05/13 08:24:43;;;;;;;12.35;7.93;;;;;;;;;;4917835;29;20043;-67
2022/05/13 08:27:09;;;;;;;11.93;5.68;;;26.20;99.40;;;;;;4918150;29;20119;-67
2022/05/13 08:29:35;;;;;;;7.78;5.78;;;26.10;99.90;;;;;;4917992;29;20032;-67
2022/05/13 08:32:01;;;;;;;8.57;5.93;;;26.30;99.90;;;;;;4917570;29;20185;-68
2022/05/13 08:34:27;;;;;;;13.20;6.75;;;26.40;99.90;;;;;;4917864;29;20090;-67
2022/05/13 08:36:53;;;;;;;10.48;5.57;;;26.40;99.90;;;;;;4918142;29;20055;-67
2022/05/13 08:39:19;;;;;;;10.18;5.72;;;26.30;99.90;;;;;;4917743;29;20067;-68
2022/05/13 08:42:00;;;;;;;12.68;5.70;;;26.30;99.90;;;;;;4917855;29;20457;-67
2022/05/13 08:44:26;;;;;;;8.40;5.55;;;;;;;;;;4917740;29;20083;-67
2022/05/13 08:47:05;;;;;;;7.15;5.15;;;;;;;;;;4916409;29;20036;-67
2022/05/13 08:49:36;;;;;;;6.47;4.90;;;;;;;;;;4917270;29;20114;-68
2022/05/13 08:55:00;;;;;;;11.98;6.25;;;;;;;;;;4917015;29;20061;-67
2022/05/13 08:57:31;;;;;;;20.25;6.38;;;26.80;95.10;;;;;;4917070;29;20076;-67
2022/05/13 09:00:08;;;;;;;10.65;5.00;;;27.30;94.70;;;;;;4917585;29;20028;-67
2022/05/13 09:02:38;;;;;;;16.65;5.75;;;27.40;94.90;;;;;;4917484;29;20067;-68
2022/05/13 09:05:28;;;;;;;7.00;5.50;;;27.50;92.90;;;;;;4917575;29;20071;-67
2022/05/13 09:07:55;;;;;;;9.77;5.22;;;27.70;93.80;;;;;;4917353;29;20028;-67
2022/05/13 09:10:22;;;;;;;12.45;5.35;;;27.90;99.90;;;;;;4917130;29;20041;-67
2022/05/13 09:13:17;;;;;;;14.35;5.30;;;27.90;93.00;;;;;;4917351;29;20031;-68
2022/05/13 09:15:50;;;;;;;8.77;5.72;;;27.90;92.40;;;;;;4917291;29;20036;-68
2022/05/13 09:18:21;;;;;;;9.80;5.82;;;;;;;;;;4917187;29;20056;-68
2022/05/13 09:20:50;;;;;;;12.27;5.80;;;;;;;;;;4917199;29;20043;-68
2022/05/13 09:23:17;;;;;;;10.88;5.97;;;;;;;;;;4916864;29;20028;-67
2022/05/13 09:25:43;;;;;;;11.50;5.22;;;;;;;;;;4917060;29;20036;-67
2022/05/13 09:28:11;;;;;;;10.65;6.22;;;;;;;;;;4917060;29;20111;-67
2022/05/13 09:30:48;;;;;;;7.55;5.57;;;;;;;;;;4917512;29;20027;-69
2022/05/13 09:33:47;;;;;;;8.23;5.70;;;;;;;;;;4940465;29;20468;-67
2022/05/13 09:36:21;;;;;;;16.95;11.25;;;28.10;91.50;;;;;;4895052;29;20049;-65
2022/05/13 09:39:15;;;;;;;9.35;6.75;;;28.80;95.80;;;;;;4895537;29;20037;-65
2022/05/13 09:41:41;;;;;;;13.30;5.38;;;;;;;;;;4895936;29;20067;-68
2022/05/13 09:44:11;;;;;;;8.18;5.00;;;;;;;;;;4895226;29;20100;-74
2022/05/13 09:46:42;;;;;;;14.17;5.73;;;;;;;;;;4895503;29;20040;-68
2022/05/13 09:49:47;;;;;;;11.57;8.43;;;28.80;91.50;;;;;;4895556;29;20020;-68
2022/05/13 09:52:13;;;;;;;11.07;5.72;;;;;;;;;;4883835;29;20075;-73
2022/05/13 09:54:43;;;;;;;13.13;6.45;;;;;;;;;;4895123;29;20033;-67
2022/05/13 09:57:11;;;;;;;12.40;5.47;;;;;;;;;;4895185;29;20600;-68
2022/05/13 09:59:42;;;;;;;11.95;5.40;;;;;;;;;;4895002;29;20080;-69
2022/05/13 10:02:23;;;;;;;7.13;5.68;;;;;;;;;;4895230;29;20363;-69
2022/05/13 10:04:51;;;;;;;8.82;5.10;;;;;;;;;;4895245;29;20103;-69
2022/05/13 10:07:18;;;;;;;8.15;5.05;;;;;;;;;;4895167;29;20371;-65
2022/05/13 10:15:31;;;;;;;13.30;5.80;;;;;;;;;;4935460;29;20090;-68
2022/05/13 10:18:02;;;;;;;12.38;5.25;;;;;;;;;;4935744;29;20115;-70
2022/05/13 10:20:30;;;;;;;11.38;6.32;;;;;;;;;;4933953;29;20032;-72
2022/05/13 10:23:08;;;;;;;8.18;5.00;;;29.40;89.60;;;;;;4935243;29;20023;-71
2022/05/13 10:25:44;;;;;;;8.10;4.95;;;30.80;80.90;;;;;;4939257;29;20090;-72
2022/05/13 10:28:16;;;;;;;19.73;5.63;;;31.10;78.60;;;;;;4939380;29;20119;-73
2022/05/13 10:30:49;;;;;;;9.77;4.97;;;31.20;83.60;;;;;;4938948;29;20043;-72
2022/05/13 10:33:29;;;;;;;10.52;5.25;;;31.60;78.20;;;;;;4939083;29;20038;-70
2022/05/13 10:36:10;;;;;;;11.10;5.55;;;31.80;79.40;;;;;;4939125;29;20039;-70
2022/05/13 10:38:47;;;;;;;12.45;5.18;;;32.50;80.70;;;;;;4939109;29;20032;-70
2022/05/13 10:41:34;;;;;;;7.90;4.43;;;;;;;;;;4937832;29;20384;-69
2022/05/13 10:44:03;;;;;;;7.07;4.80;;;;;;;;;;4938452;29;20032;-68
2022/05/13 10:46:54;;;;;;;13.25;5.20;;;33.90;74.20;;;;;;4938794;29;20107;-68
2022/05/13 10:49:20;;;;;;;7.35;4.50;;;33.80;75.60;;;;;;4938871;29;20034;-70
2022/05/13 10:52:12;;;;;;;6.95;4.72;;;34.60;69.60;;;;;;4938767;29;20032;-71
2022/05/13 10:54:39;;;;;;;8.05;4.82;;;34.50;68.80;;;;;;4932413;29;20098;-71
2022/05/13 10:57:32;;;;;;;12.88;5.25;;;34.60;68.50;;;;;;4937152;29;20039;-69
2022/05/13 11:00:08;;;;;;;8.93;4.57;;;35.20;68.30;;;;;;4928466;29;20099;-70
2022/05/13 11:02:49;;;;;;;9.73;4.82;;;35.80;69.70;;;;;;4938600;29;20062;-68
2022/05/13 11:05:34;;;;;;;13.75;5.43;;;35.70;66.90;;;;;;4938777;29;20163;-72
2022/05/13 11:08:06;;;;;;;11.23;4.18;;;35.80;67.90;;;;;;4937275;29;20092;-73
2022/05/13 11:10:52;;;;;;;8.85;4.30;;;36.10;68.50;;;;;;4938426;29;20074;-70
2022/05/13 11:13:37;;;;;;;10.63;4.30;;;36.20;65.10;;;;;;4938506;29;20465;-73
2022/05/13 11:16:08;;;;;;;7.20;4.60;;;36.50;65.30;;;;;;4938374;29;20032;-70
2022/05/13 11:19:02;;;;;;;7.13;4.43;;;36.30;62.10;;;;;;4938454;29;20046;-68
2022/05/13 11:21:59;;;;;;;8.82;4.30;;;36.40;65.80;;;;;;4938304;29;20477;-71
2022/05/13 11:27:37;;;;;;;11.15;4.88;;;37.30;63.80;;;;;;4933662;29;20100;-74
2022/05/13 11:30:44;;;;;;;15.35;4.85;;;37.10;60.00;;;;;;4917304;29;20417;-73
2022/05/13 11:33:36;;;;;;;11.18;4.50;;;36.90;60.80;;;;;;4918694;29;20032;-70
2022/05/13 11:36:13;;;;;;;7.63;4.05;;;37.60;61.00;;;;;;4926647;29;20496;-73
2022/05/13 11:39:19;;;;;;;7.20;4.18;;;38.00;58.90;;;;;;4931505;29;20129;-72
2022/05/13 11:42:13;;;;;;;9.32;4.95;;;38.00;58.20;;;;;;4921865;29;20508;-74
2022/05/13 11:45:18;;;;;;;6.47;4.13;;;38.10;84.60;;;;;;4920432;29;20263;-73
2022/05/13 11:47:56;;;;;;;13.18;4.55;;;38.40;57.70;;;;;;4916044;29;20040;-69
2022/05/13 11:50:27;;;;;;;7.47;4.25;;;39.10;57.00;;;;;;4918603;29;20087;-70
2022/05/13 11:52:54;;;;;;;6.57;4.22;;;39.40;56.50;;;;;;4918825;29;20024;-69
2022/05/13 11:55:22;;;;;;;9.93;3.83;;;;;;;;;;4918937;29;20039;-71
2022/05/13 11:57:54;;;;;;;8.68;4.00;;;39.60;57.60;;;;;;4917515;29;20024;-71
2022/05/13 12:00:33;;;;;;;7.10;4.22;;;38.50;56.70;;;;;;4918719;29;20035;-74
2022/05/13 12:03:08;;;;;;;12.20;4.40;;;38.60;55.50;;;;;;4918440;29;20484;-70
2022/05/13 12:06:00;;;;;;;6.80;3.97;;;39.60;57.00;;;;;;4917213;29;20040;-74
2022/05/13 12:08:49;;;;;;;7.65;4.07;;;39.50;55.40;;;;;;4918358;29;20127;-72
2022/05/13 12:11:33;;;;;;;8.35;3.88;;;39.20;54.20;;;;;;4915950;29;20092;-75
2022/05/13 12:14:04;;;;;;;11.07;3.88;;;;;;;;;;4916211;29;20032;-73
2022/05/13 12:16:47;;;;;;;6.22;4.00;;;39.90;56.30;;;;;;4917751;29;20039;-74
2022/05/13 12:19:31;;;;;;;6.85;4.30;;;;;;;;;;4916915;29;20059;-75
2022/05/13 12:22:30;;;;;;;9.50;4.05;;;41.40;53.10;;;;;;4917945;29;20435;-71
2022/05/13 12:25:09;;;;;;;12.82;4.32;;;40.80;52.00;;;;;;4929702;29;20024;-74
2022/05/13 12:27:38;;;;;;;9.43;4.60;;;40.30;52.00;;;;;;4937071;29;20038;-74
2022/05/13 12:30:11;;;;;;;7.32;3.60;;;;;;;;;;4920114;29;20056;-72
2022/05/13 12:32:45;;;;;;;6.07;4.25;;;;;;;;;;4917264;29;20032;-72
2022/05/13 12:38:23;;;;;;;8.68;3.95;;;41.90;51.10;;;;;;4936338;29;20066;-70
2022/05/13 12:41:24;;;;;;;10.65;4.53;;;41.80;76.10;;;;;;4936847;29;20063;-69
2022/05/13 12:44:06;;;;;;;10.27;4.85;;;41.30;49.50;;;;;;4934742;29;20470;-71
2022/05/13 12:46:48;;;;;;;7.93;4.10;;;;;;;;;;4936067;29;20027;-73
2022/05/13 12:49:25;;;;;;;4.65;3.22;;;42.40;63.90;;;;;;4945997;29;20091;-74
2022/05/13 12:52:34;;;;;;;10.93;4.32;;;43.50;48.70;;;;;;4917351;29;20040;-73
2022/05/13 12:55:05;;;;;;;5.53;3.80;;;43.40;48.80;;;;;;4917706;29;20441;-74
2022/05/13 12:57:35;;;;;;;7.13;3.50;;;42.50;48.70;;;;;;4916378;29;20036;-73
2022/05/13 13:00:01;;;;;;;8.10;4.70;;;;;;;;;;4917630;29;20032;-73
2022/05/13 13:02:32;;;;;;;7.63;4.80;;;42.80;48.40;;;;;;4917655;29;20043;-73
2022/05/13 13:05:03;;;;;;;8.07;3.55;;;43.00;47.50;;;;;;4917536;29;20106;-73
2022/05/13 13:07:32;;;;;;;6.50;3.65;;;43.20;48.50;;;;;;4917578;29;20039;-73
2022/05/13 13:09:59;;;;;;;7.22;3.63;;;;;;;;;;4917423;29;20033;-73
2022/05/13 13:12:42;;;;;;;6.43;3.50;;;;;;;;;;4917492;29;20111;-73
2022/05/13 13:15:21;;;;;;;8.57;3.72;;;42.90;48.70;;;;;;4917458;29;20036;-73
2022/05/13 13:17:55;;;;;;;6.72;3.47;;;44.80;46.30;;;;;;4916055;29;20028;-72
2022/05/13 13:20:22;;;;;;;5.63;3.30;;;45.00;46.50;;;;;;4916890;29;20043;-73
2022/05/13 13:23:10;;;;;;;7.07;3.42;;;45.30;45.50;;;;;;4917292;29;20086;-73
2022/05/13 13:25:42;;;;;;;7.55;3.83;;;;;;;;;;4917261;29;20114;-74
2022/05/13 13:28:11;;;;;;;6.20;3.30;;;44.50;47.70;;;;;;4917095;29;20036;-73
2022/05/13 13:30:42;;;;;;;12.80;3.70;;;;;;;;;;4916998;29;20059;-74
2022/05/13 13:33:09;;;;;;;6.93;4.05;;;;;;;;;;4917210;29;20062;-73
2022/05/13 13:35:36;;;;;;;7.65;3.55;;;44.40;44.80;;;;;;4916684;29;20489;-72
2022/05/13 13:38:07;;;;;;;5.55;3.22;;;44.30;45.40;;;;;;4917306;29;20032;-71
2022/05/13 13:40:41;;;;;;;6.68;2.95;;;44.80;45.00;;;;;;4917058;29;20491;-71
2022/05/13 13:43:26;;;;;;;5.45;3.30;;;45.70;45.00;;;;;;4917020;29;20370;-72
2022/05/13 13:45:55;;;;;;;5.40;3.00;;;45.20;43.70;;;;;;4917293;29;20043;-71